createdAt,value
2022-11-05T00:01:25.103Z,100309.81
2022-11-05T00:04:14.986Z,100306.90
2022-11-05T00:07:05.488Z,100315.55
2022-11-05T00:09:38.805Z,100311.42
2022-11-05T00:12:31.466Z,100312.08
2022-11-05T00:15:21.382Z,100316.70
2022-11-05T00:17:53.789Z,100316.52
2022-11-05T00:20:26.211Z,100317.03
2022-11-05T00:23:21.730Z,100313.30
2022-11-05T00:26:02.017Z,100320.98
2022-11-05T00:28:36.261Z,100324.11
2022-11-05T00:31:10.975Z,100327.99
2022-11-05T00:33:44.833Z,100327.23
2022-11-05T00:36:17.027Z,100324.30
2022-11-05T00:38:49.598Z,100328.94
2022-11-05T00:41:21.950Z,100329.38
2022-11-05T00:44:11.843Z,100325.31
2022-11-05T00:46:44.102Z,100324.19
2022-11-05T00:49:31.743Z,100324.05
2022-11-05T00:52:17.774Z,100322.91
2022-11-05T00:54:50.090Z,100321.11
2022-11-05T00:57:22.362Z,100316.75
2022-11-05T00:59:54.614Z,100311.94
2022-11-05T01:02:27.099Z,100305.07
2022-11-05T01:04:59.538Z,100303.58
2022-11-05T01:07:31.911Z,100303.08
2022-11-05T01:10:04.272Z,100305.63
2022-11-05T01:12:37.321Z,100304.99
2022-11-05T01:15:11.554Z,100305.42
2022-11-05T01:17:43.805Z,100308.80
2022-11-05T01:20:16.852Z,100303.09
2022-11-05T01:22:49.463Z,100305.10
2022-11-05T01:25:22.311Z,100297.75
2022-11-05T01:27:54.709Z,100297.66
2022-11-05T01:30:27.380Z,100295.86
2022-11-05T01:33:00.400Z,100291.26
2022-11-05T01:35:33.290Z,100291.28
2022-11-05T01:38:05.656Z,100287.33
2022-11-05T01:40:37.960Z,100289.95
2022-11-05T01:43:15.793Z,100290.91
2022-11-05T01:45:50.966Z,100289.83
2022-11-05T01:48:26.665Z,100287.52
2022-11-05T01:51:03.249Z,100285.92
2022-11-05T01:53:40.995Z,100281.39
2022-11-05T01:56:19.123Z,100283.52
2022-11-05T01:58:57.032Z,100281.30
2022-11-05T02:01:30.101Z,100272.86
2022-11-05T02:04:05.742Z,100273.75
2022-11-05T02:06:46.449Z,100270.15
2022-11-05T02:09:23.810Z,100265.87
2022-11-05T02:11:56.086Z,100264.20
2022-11-05T02:14:29.353Z,100264.42
2022-11-05T02:17:07.604Z,100269.09
2022-11-05T02:20:10.813Z,100272.75
2022-11-05T02:23:25.779Z,100271.21
2022-11-05T02:26:19.726Z,100269.84
2022-11-05T02:29:27.230Z,100273.58
2022-11-05T02:32:06.778Z,100280.64
2022-11-05T02:34:50.720Z,100284.19
2022-11-05T02:37:32.724Z,100286.92
2022-11-05T02:40:16.794Z,100291.02
2022-11-05T02:42:59.085Z,100297.02
2022-11-05T02:45:42.313Z,100297.12
2022-11-05T02:48:23.046Z,100295.58
2022-11-05T02:51:00.760Z,100291.58
2022-11-05T02:53:40.225Z,100287.08
2022-11-05T02:56:19.142Z,100288.09
2022-11-05T02:58:51.394Z,100279.75
2022-11-05T03:01:23.723Z,100278.48
2022-11-05T03:04:00.364Z,100276.98
2022-11-05T03:06:48.419Z,100273.81
2022-11-05T03:09:48.487Z,100271.48
2022-11-05T03:12:32.527Z,100272.21
2022-11-05T03:15:17.326Z,100267.12
2022-11-05T03:17:59.925Z,100270.05
2022-11-05T03:20:37.319Z,100271.81
2022-11-05T03:23:17.342Z,100273.48
2022-11-05T03:25:54.862Z,100277.40
2022-11-05T03:28:31.225Z,100273.37
2022-11-05T03:31:06.157Z,100269.50
2022-11-05T03:33:40.794Z,100274.55
2022-11-05T03:36:18.766Z,100276.54
2022-11-05T03:38:56.109Z,100282.82
2022-11-05T03:41:30.188Z,100288.73
2022-11-05T03:44:07.998Z,100287.08
2022-11-05T03:46:44.471Z,100280.98
2022-11-05T03:49:22.337Z,100274.59
2022-11-05T03:52:00.324Z,100266.98
2022-11-05T03:54:32.896Z,100268.36
2022-11-05T03:57:10.090Z,100271.69
2022-11-05T03:59:48.007Z,100284.10
2022-11-05T04:02:23.692Z,100284.98
2022-11-05T04:04:56.931Z,100286.55
2022-11-05T04:07:46.807Z,100284.70
2022-11-05T04:10:37.174Z,100282.95
2022-11-05T04:13:25.298Z,100282.46
2022-11-05T04:16:12.688Z,100284.92
2022-11-05T04:18:45.409Z,100282.23
2022-11-05T04:21:35.012Z,100278.83
2022-11-05T04:24:10.764Z,100276.92
2022-11-05T04:26:42.273Z,100291.66
2022-11-05T04:29:32.166Z,100297.57
2022-11-05T04:32:04.600Z,100297.55
2022-11-05T04:34:36.878Z,100298.53
2022-11-05T04:37:09.215Z,100303.44
2022-11-05T04:39:41.465Z,100306.20
2022-11-05T04:42:13.757Z,100299.10
2022-11-05T04:44:46.167Z,100293.68
2022-11-05T04:47:18.378Z,100282.27
2022-11-05T04:49:50.972Z,100274.23
2022-11-05T04:52:23.246Z,100272.83
2022-11-05T04:54:55.798Z,100276.92
2022-11-05T04:57:28.281Z,100283.36
2022-11-05T05:00:00.688Z,100290.41
2022-11-05T05:02:33.043Z,100288.49
2022-11-05T05:05:06.517Z,100289.70
2022-11-05T05:07:38.842Z,100294.54
2022-11-05T05:10:12.573Z,100296.67
2022-11-05T05:12:44.774Z,100292.27
2022-11-05T05:15:17.057Z,100293.80
2022-11-05T05:17:53.410Z,100297.54
2022-11-05T05:20:43.352Z,100305.60
2022-11-05T05:23:15.709Z,100305.51
2022-11-05T05:25:47.961Z,100307.44
2022-11-05T05:28:20.261Z,100305.94
2022-11-05T05:30:57.600Z,100311.80
2022-11-05T05:33:31.319Z,100319.36
2022-11-05T05:36:08.407Z,100325.46
2022-11-05T05:38:43.672Z,100332.16
2022-11-05T05:41:16.313Z,100344.31
2022-11-05T05:43:48.905Z,100349.05
2022-11-05T05:46:21.706Z,100353.58
2022-11-05T05:48:55.930Z,100359.21
2022-11-05T05:51:28.277Z,100363.58
2022-11-05T05:54:00.573Z,100358.68
2022-11-05T05:56:33.721Z,100361.72
2022-11-05T05:59:08.322Z,100366.50
2022-11-05T06:01:41.003Z,100368.35
2022-11-05T06:04:14.232Z,100369.68
2022-11-05T06:06:48.410Z,100374.08
2022-11-05T06:09:20.825Z,100383.65
2022-11-05T06:11:53.084Z,100387.98
2022-11-05T06:14:25.312Z,100390.77
2022-11-05T06:16:57.859Z,100389.54
2022-11-05T06:19:30.366Z,100393.08
2022-11-05T06:22:02.540Z,100398.04
2022-11-05T06:24:34.843Z,100393.88
2022-11-05T06:27:07.114Z,100394.26
2022-11-05T06:29:40.629Z,100393.38
2022-11-05T06:32:13.020Z,100397.37
2022-11-05T06:34:45.193Z,100400.44
2022-11-05T06:37:17.555Z,100403.43
2022-11-05T06:39:50.233Z,100402.27
2022-11-05T06:42:22.921Z,100402.48
2022-11-05T06:44:56.727Z,100395.72
2022-11-05T06:47:29.401Z,100388.30
2022-11-05T06:50:01.603Z,100386.34
2022-11-05T06:52:38.340Z,100383.71
2022-11-05T06:55:13.602Z,100384.48
2022-11-05T06:57:45.909Z,100381.26
2022-11-05T07:00:19.819Z,100387.13
2022-11-05T07:02:52.619Z,100390.41
2022-11-05T07:05:25.519Z,100397.86
2022-11-05T07:07:57.769Z,100402.64
2022-11-05T07:10:30.331Z,100399.98
2022-11-05T07:13:07.591Z,100395.46
2022-11-05T07:15:40.908Z,100394.73
2022-11-05T07:18:13.517Z,100394.98
2022-11-05T07:20:45.822Z,100387.86
2022-11-05T07:23:18.747Z,100387.46
2022-11-05T07:25:51.152Z,100388.27
2022-11-05T07:28:23.535Z,100383.02
2022-11-05T07:30:56.006Z,100383.50
2022-11-05T07:33:32.306Z,100380.15
2022-11-05T07:36:08.695Z,100378.66
2022-11-05T07:38:40.937Z,100379.45
2022-11-05T07:41:13.541Z,100385.80
2022-11-05T07:43:45.836Z,100390.14
2022-11-05T07:46:18.138Z,100393.91
2022-11-05T07:48:50.327Z,100389.39
2022-11-05T07:51:22.542Z,100390.67
2022-11-05T07:53:54.812Z,100383.58
2022-11-05T07:56:27.155Z,100387.28
2022-11-05T07:58:59.353Z,100385.80
2022-11-05T08:01:32.275Z,100383.57
2022-11-05T08:04:04.808Z,100381.63
2022-11-05T08:06:37.084Z,100383.09
2022-11-05T08:09:09.416Z,100387.03
2022-11-05T08:11:42.035Z,100390.00
2022-11-05T08:14:14.714Z,100387.19
2022-11-05T08:16:46.992Z,100385.14
2022-11-05T08:19:19.722Z,100389.11
2022-11-05T08:21:52.094Z,100396.80
2022-11-05T08:24:24.337Z,100386.42
2022-11-05T08:26:57.103Z,100377.57
2022-11-05T08:29:29.847Z,100374.98
2022-11-05T08:32:02.042Z,100374.64
2022-11-05T08:34:34.639Z,100376.87
2022-11-05T08:37:07.195Z,100372.80
2022-11-05T08:39:39.979Z,100364.63
2022-11-05T08:42:12.705Z,100360.69
2022-11-05T08:44:45.035Z,100361.88
2022-11-05T08:47:17.298Z,100363.16
2022-11-05T08:49:49.718Z,100359.61
2022-11-05T08:52:21.987Z,100362.69
2022-11-05T08:54:54.233Z,100362.84
2022-11-05T08:57:27.453Z,100365.89
2022-11-05T09:00:00.052Z,100363.25
2022-11-05T09:02:32.273Z,100362.03
2022-11-05T09:05:04.816Z,100360.67
2022-11-05T09:07:37.280Z,100364.81
2022-11-05T09:10:11.214Z,100372.63
2022-11-05T09:12:43.416Z,100376.39
2022-11-05T09:15:15.708Z,100376.74
2022-11-05T09:17:47.895Z,100365.15
2022-11-05T09:20:20.594Z,100363.02
2022-11-05T09:22:53.003Z,100368.57
2022-11-05T09:25:25.575Z,100371.70
2022-11-05T09:28:16.244Z,100370.41
2022-11-05T09:30:51.593Z,100372.52
2022-11-05T09:33:26.632Z,100372.41
2022-11-05T09:36:02.618Z,100374.21
2022-11-05T09:38:36.110Z,100371.39
2022-11-05T09:41:14.527Z,100374.42
2022-11-05T09:43:51.726Z,100376.90
2022-11-05T09:46:26.331Z,100376.54
2022-11-05T09:49:04.325Z,100375.52
2022-11-05T09:51:37.289Z,100368.54
2022-11-05T09:54:11.842Z,100368.20
2022-11-05T09:56:44.947Z,100363.98
2022-11-05T09:59:23.074Z,100361.92
2022-11-05T10:02:05.759Z,100366.19
2022-11-05T10:04:39.125Z,100367.36
2022-11-05T10:07:17.306Z,100363.29
2022-11-05T10:09:52.711Z,100359.98
2022-11-05T10:12:25.709Z,100360.58
2022-11-05T10:15:07.174Z,100362.48
2022-11-05T10:17:43.863Z,100363.92
2022-11-05T10:20:27.783Z,100364.02
2022-11-05T10:23:03.141Z,100365.69
2022-11-05T10:25:40.426Z,100364.60
2022-11-05T10:28:18.258Z,100360.67
2022-11-05T10:30:55.280Z,100358.55
2022-11-05T10:33:35.027Z,100355.36
2022-11-05T10:36:11.561Z,100353.64
2022-11-05T10:38:44.249Z,100351.65
2022-11-05T10:41:37.708Z,100351.80
2022-11-05T10:44:24.275Z,100351.84
2022-11-05T10:47:10.274Z,100356.19
2022-11-05T10:49:54.189Z,100351.19
2022-11-05T10:52:29.582Z,100350.34
2022-11-05T10:55:05.900Z,100343.64
2022-11-05T10:57:40.327Z,100342.34
2022-11-05T11:00:31.528Z,100343.27
2022-11-05T11:03:05.857Z,100341.05
2022-11-05T11:05:40.827Z,100337.42
2022-11-05T11:08:26.368Z,100337.75
2022-11-05T11:11:03.279Z,100340.18
2022-11-05T11:13:59.870Z,100333.73
2022-11-05T11:16:37.003Z,100335.23
2022-11-05T11:19:26.781Z,100333.36
2022-11-05T11:22:28.592Z,100333.25
2022-11-05T11:25:01.447Z,100332.02
2022-11-05T11:27:37.502Z,100329.12
2022-11-05T11:30:20.463Z,100325.15
2022-11-05T11:32:53.206Z,100320.98
2022-11-05T11:35:27.479Z,100320.05
2022-11-05T11:38:02.374Z,100320.52
2022-11-05T11:40:37.883Z,100319.77
2022-11-05T11:43:21.390Z,100317.53
2022-11-05T11:46:00.702Z,100312.80
2022-11-05T11:48:37.934Z,100308.20
2022-11-05T11:51:30.446Z,100304.29
2022-11-05T11:54:03.974Z,100302.70
2022-11-05T11:56:46.343Z,100303.11
2022-11-05T11:59:46.896Z,100303.36
2022-11-05T12:02:43.428Z,100306.55
2022-11-05T12:05:24.934Z,100305.90
2022-11-05T12:08:02.722Z,100302.23
2022-11-05T12:10:55.552Z,100300.43
2022-11-05T12:13:59.558Z,100299.31
2022-11-05T12:16:55.320Z,100300.91
2022-11-05T12:19:45.938Z,100302.89
2022-11-05T12:22:28.742Z,100300.40
2022-11-05T12:25:22.724Z,100295.28
2022-11-05T12:28:16.778Z,100294.33
2022-11-05T12:30:57.586Z,100302.18
2022-11-05T12:33:39.558Z,100303.41
2022-11-05T12:36:22.766Z,100308.40
2022-11-05T12:39:26.695Z,100302.52
2022-11-05T12:42:08.096Z,100300.95
2022-11-05T12:45:02.266Z,100301.67
2022-11-05T12:47:59.580Z,100307.90
2022-11-05T12:50:38.531Z,100301.27
2022-11-05T12:53:35.911Z,100307.27
2022-11-05T12:56:14.853Z,100306.59
2022-11-05T12:58:51.896Z,100306.89
2022-11-05T13:01:33.416Z,100299.59
2022-11-05T13:04:12.528Z,100305.19
2022-11-05T13:06:50.323Z,100308.23
2022-11-05T13:09:27.499Z,100308.15
2022-11-05T13:12:05.310Z,100312.09
2022-11-05T13:14:45.454Z,100308.55
2022-11-05T13:17:20.893Z,100310.52
2022-11-05T13:19:58.699Z,100309.56
2022-11-05T13:22:40.501Z,100307.34
2022-11-05T13:25:18.897Z,100302.70
2022-11-05T13:28:00.533Z,100301.88
2022-11-05T13:30:37.825Z,100300.55
2022-11-05T13:33:22.578Z,100304.38
2022-11-05T13:36:14.221Z,100304.25
2022-11-05T13:39:07.208Z,100304.23
2022-11-05T13:41:54.784Z,100313.08
2022-11-05T13:44:59.636Z,100315.83
2022-11-05T13:47:49.210Z,100316.50
2022-11-05T13:50:55.638Z,100321.19
2022-11-05T13:53:58.245Z,100327.42
2022-11-05T13:56:41.871Z,100325.67
2022-11-05T13:59:45.175Z,100330.18
2022-11-05T14:02:20.157Z,100339.51
2022-11-05T14:05:00.728Z,100343.73
2022-11-05T14:07:36.625Z,100343.61
2022-11-05T14:10:22.826Z,100344.48
2022-11-05T14:12:56.966Z,100346.02
2022-11-05T14:15:32.491Z,100346.95
2022-11-05T14:18:07.418Z,100352.93
2022-11-05T14:21:00.442Z,100355.16
2022-11-05T14:23:54.270Z,100356.07
2022-11-05T14:26:28.750Z,100362.67
2022-11-05T14:29:37.475Z,100366.95
2022-11-05T14:32:28.404Z,100369.76
2022-11-05T14:35:05.303Z,100364.44
2022-11-05T14:37:41.282Z,100360.98
2022-11-05T14:40:37.513Z,100359.70
2022-11-05T14:43:21.514Z,100361.17
2022-11-05T14:46:01.292Z,100371.96
2022-11-05T14:48:42.193Z,100371.38
2022-11-05T14:51:29.898Z,100370.23
2022-11-05T14:54:04.900Z,100369.79
2022-11-05T14:56:51.811Z,100371.76
2022-11-05T15:02:40.061Z,100375.84
2022-11-05T15:05:38.866Z,100375.77
2022-11-05T15:08:32.510Z,100378.16
2022-11-05T15:11:14.505Z,100377.39
2022-11-05T15:13:58.082Z,100378.59
2022-11-05T15:16:35.359Z,100387.45
2022-11-05T15:19:13.527Z,100390.95
2022-11-05T15:21:47.947Z,100393.48
2022-11-05T15:24:21.965Z,100390.77
2022-11-05T15:27:02.337Z,100392.48
2022-11-05T15:29:34.974Z,100391.89
2022-11-05T15:32:15.770Z,100394.16
2022-11-05T15:34:55.764Z,100394.46
2022-11-05T15:37:28.944Z,100396.96
2022-11-05T15:40:01.330Z,100396.69
2022-11-05T15:42:33.658Z,100397.86
2022-11-05T15:45:20.182Z,100397.91
2022-11-05T15:47:52.464Z,100410.59
2022-11-05T15:50:24.743Z,100409.95
2022-11-05T15:53:09.498Z,100407.78
2022-11-05T15:55:58.234Z,100404.55
2022-11-05T15:58:30.594Z,100407.55
2022-11-05T16:01:02.886Z,100411.90
2022-11-05T16:03:39.960Z,100406.90
2022-11-05T16:06:12.763Z,100407.86
2022-11-05T16:08:50.122Z,100410.08
2022-11-05T16:11:27.614Z,100412.90
2022-11-05T16:14:17.445Z,100422.11
2022-11-05T16:16:49.817Z,100422.59
2022-11-05T16:19:45.734Z,100434.77
2022-11-05T16:22:18.485Z,100438.23
2022-11-05T16:24:51.260Z,100438.80
2022-11-05T16:27:25.006Z,100443.66
2022-11-05T16:29:58.501Z,100440.95
2022-11-05T16:32:32.281Z,100448.41
2022-11-05T16:35:07.022Z,100451.63
2022-11-05T16:37:46.370Z,100452.80
2022-11-05T16:40:24.645Z,100454.14
2022-11-05T16:43:01.438Z,100461.45
2022-11-05T16:45:41.213Z,100461.68
2022-11-05T16:48:15.525Z,100466.19
2022-11-05T16:50:48.727Z,100466.60
2022-11-05T16:53:20.994Z,100464.83
2022-11-05T16:55:53.367Z,100467.08
2022-11-05T16:58:27.788Z,100471.07
2022-11-05T17:01:05.187Z,100471.81
2022-11-05T17:03:37.930Z,100478.55
2022-11-05T17:06:11.050Z,100479.49
2022-11-05T17:08:44.464Z,100480.40
2022-11-05T17:11:19.178Z,100485.70
2022-11-05T17:13:52.049Z,100493.25
2022-11-05T17:16:26.475Z,100493.37
2022-11-05T17:18:59.435Z,100497.29
2022-11-05T17:21:31.695Z,100492.12
2022-11-05T17:24:03.989Z,100493.69
2022-11-05T17:26:36.561Z,100493.82
2022-11-05T17:29:09.274Z,100494.20
2022-11-05T17:31:43.531Z,100498.23
2022-11-05T17:34:15.722Z,100497.02
2022-11-05T17:36:47.966Z,100500.54
2022-11-05T17:39:20.231Z,100498.71
2022-11-05T17:41:53.172Z,100504.32
2022-11-05T17:44:25.429Z,100501.27
2022-11-05T17:46:58.022Z,100498.33
2022-11-05T17:49:30.331Z,100501.34
2022-11-05T17:52:02.608Z,100501.52
2022-11-05T17:54:35.231Z,100501.08
2022-11-05T17:57:07.760Z,100500.76
2022-11-05T17:59:40.010Z,100504.95
2022-11-05T18:02:14.146Z,100506.52
2022-11-05T18:04:46.514Z,100514.04
2022-11-05T18:07:19.190Z,100523.61
2022-11-05T18:09:51.893Z,100523.29
2022-11-05T18:12:24.110Z,100520.66
2022-11-05T18:14:56.407Z,100522.00
2022-11-05T18:17:29.224Z,100530.24
2022-11-05T18:20:01.439Z,100525.96
2022-11-05T18:22:33.666Z,100528.70
2022-11-05T18:25:07.382Z,100525.33
2022-11-05T18:27:40.686Z,100529.30
2022-11-05T18:30:16.079Z,100528.20
2022-11-05T18:32:48.396Z,100532.95
2022-11-05T18:35:21.142Z,100529.31
2022-11-05T18:37:53.709Z,100533.91
2022-11-05T18:40:26.269Z,100543.75
2022-11-05T18:42:58.547Z,100547.38
2022-11-05T18:45:32.209Z,100556.23
2022-11-05T18:48:06.153Z,100558.73
2022-11-05T18:50:40.104Z,100558.70
2022-11-05T18:53:12.648Z,100559.80
2022-11-05T18:55:45.078Z,100559.80
2022-11-05T18:58:17.782Z,100562.91
2022-11-05T19:00:50.133Z,100559.53
2022-11-05T19:03:22.490Z,100563.48
2022-11-05T19:05:55.635Z,100567.05
2022-11-05T19:08:28.243Z,100573.77
2022-11-05T19:11:01.315Z,100578.01
2022-11-05T19:13:33.487Z,100585.23
2022-11-05T19:16:09.387Z,100584.91
2022-11-05T19:18:41.694Z,100589.70
2022-11-05T19:21:16.250Z,100583.02
2022-11-05T19:23:48.517Z,100583.21
2022-11-05T19:26:28.129Z,100586.88
2022-11-05T19:29:02.596Z,100585.46
2022-11-05T19:31:34.875Z,100580.64
2022-11-05T19:34:07.488Z,100585.29
2022-11-05T19:36:40.174Z,100588.11
2022-11-05T19:39:15.421Z,100592.66
2022-11-05T19:41:48.607Z,100592.27
2022-11-05T19:44:21.043Z,100595.19
2022-11-05T19:46:53.399Z,100596.50
2022-11-05T19:49:28.239Z,100596.33
2022-11-05T19:52:01.268Z,100598.98
2022-11-05T19:54:35.643Z,100598.31
2022-11-05T19:57:08.057Z,100599.95
2022-11-05T19:59:40.578Z,100603.77
2022-11-05T20:02:16.494Z,100603.81
2022-11-05T20:04:50.870Z,100606.23
2022-11-05T20:07:23.292Z,100607.85
2022-11-05T20:09:55.522Z,100611.11
2022-11-05T20:12:27.868Z,100607.44
2022-11-05T20:15:00.138Z,100609.31
2022-11-05T20:17:32.480Z,100611.39
2022-11-05T20:20:05.508Z,100610.55
2022-11-05T20:22:38.497Z,100605.16
2022-11-05T20:25:12.496Z,100608.98
2022-11-05T20:27:45.184Z,100606.73
2022-11-05T20:30:18.686Z,100606.77
2022-11-05T20:32:54.111Z,100609.04
2022-11-05T20:35:27.011Z,100611.18
2022-11-05T20:37:59.582Z,100615.08
2022-11-05T20:40:31.862Z,100619.36
2022-11-05T20:43:04.392Z,100613.52
2022-11-05T20:45:38.482Z,100615.73
2022-11-05T20:48:11.039Z,100613.05
2022-11-05T20:50:45.604Z,100613.70
2022-11-05T20:53:18.194Z,100617.95
2022-11-05T20:55:50.913Z,100619.41
2022-11-05T20:58:23.493Z,100620.02
2022-11-05T21:00:57.528Z,100618.88
2022-11-05T21:03:29.860Z,100622.27
2022-11-05T21:06:04.713Z,100621.13
2022-11-05T21:08:37.473Z,100626.41
2022-11-05T21:11:10.773Z,100624.05
2022-11-05T21:13:43.504Z,100627.06
2022-11-05T21:16:19.065Z,100632.89
2022-11-05T21:18:50.177Z,100630.80
2022-11-05T21:21:23.161Z,100627.91
2022-11-05T21:23:55.347Z,100630.63
2022-11-05T21:26:28.291Z,100634.81
2022-11-05T21:29:00.606Z,100637.65
2022-11-05T21:31:32.880Z,100639.75
2022-11-05T21:34:05.682Z,100638.05
2022-11-05T21:36:38.013Z,100642.00
2022-11-05T21:39:13.462Z,100646.64
2022-11-05T21:41:46.301Z,100637.61
2022-11-05T21:44:18.839Z,100641.03
2022-11-05T21:46:52.536Z,100646.18
2022-11-05T21:49:25.082Z,100647.42
2022-11-05T21:52:15.032Z,100645.45
2022-11-05T21:55:04.977Z,100645.27
2022-11-05T21:57:55.096Z,100644.04
2022-11-05T22:00:27.866Z,100652.29
2022-11-05T22:03:01.903Z,100653.25
2022-11-05T22:05:34.491Z,100650.91
2022-11-05T22:08:07.061Z,100646.96
2022-11-05T22:10:39.461Z,100647.30
2022-11-05T22:13:11.711Z,100648.44
2022-11-05T22:15:44.243Z,100646.84
2022-11-05T22:18:16.506Z,100647.33
2022-11-05T22:20:48.817Z,100647.16
2022-11-05T22:23:21.067Z,100652.46
2022-11-05T22:25:59.403Z,100653.56
2022-11-05T22:28:31.608Z,100654.73
2022-11-05T22:31:04.071Z,100652.50
2022-11-05T22:33:36.263Z,100648.58
2022-11-05T22:36:10.195Z,100651.23
2022-11-05T22:38:43.034Z,100646.70
2022-11-05T22:41:17.591Z,100649.23
2022-11-05T22:43:50.282Z,100654.91
2022-11-05T22:46:24.721Z,100651.23
2022-11-05T22:48:58.366Z,100656.65
2022-11-05T22:51:32.839Z,100658.84
2022-11-05T22:54:06.710Z,100659.73
2022-11-05T22:56:41.841Z,100658.31
2022-11-05T22:59:16.694Z,100660.05
2022-11-05T23:01:49.544Z,100662.20
2022-11-05T23:04:22.255Z,100657.11
2022-11-05T23:07:12.745Z,100656.25
2022-11-05T23:10:02.484Z,100656.08
2022-11-05T23:12:38.085Z,100653.75
2022-11-05T23:15:32.473Z,100655.46
2022-11-05T23:18:22.370Z,100657.13
2022-11-05T23:21:12.756Z,100656.13
2022-11-05T23:24:02.431Z,100654.64
2022-11-05T23:26:54.136Z,100653.30
2022-11-05T23:29:28.191Z,100659.86
2022-11-05T23:32:18.305Z,100656.61
2022-11-05T23:34:50.704Z,100654.89
2022-11-05T23:37:41.872Z,100657.67
2022-11-05T23:40:17.513Z,100655.30
2022-11-05T23:43:07.692Z,100657.92
2022-11-05T23:46:00.171Z,100654.18
2022-11-05T23:48:34.766Z,100661.07
2022-11-05T23:51:10.071Z,100667.50
2022-11-05T23:53:43.603Z,100666.30
2022-11-05T23:56:16.989Z,100662.60
2022-11-05T23:58:49.688Z,100665.57
